Time;durP1;ratioP1;P1;durP2;ratioP2;P2;SDS_P1;SDS_P2;PMS_P1;PMS_P2;Temp;Humidity;BMP_temperature;BMP_pressure;BME280_temperature;BME280_humidity;BME280_pressure;Samples;Min_cycle;Max_cycle;Signal;HPM_P1;HPM_P2
2022/04/17 00:02:01;;;;;;;;;;;;;;;;;;5123226;27;1209;-73
2022/04/17 00:04:27;;;;;;;;;;;;;;;;;;5126167;27;1532;-75
2022/04/17 00:06:52;;;;;;;;;;;;;;;;;;5126294;27;1235;-74
2022/04/17 00:09:18;;;;;;;;;;;;;;;;;;5124666;27;1959;-74
2022/04/17 00:11:43;;;;;;;;;;;;;;;;;;5102593;28;1342;-74
2022/04/17 00:14:10;;;;;;;;;;;;;;;;;;5103567;28;1048;-75
2022/04/17 00:16:35;;;;;;;;;;;;;;;;;;5096316;27;1289;-73
2022/04/17 00:19:01;;;;;;;;;;;;;;;;;;5127884;27;1138;-75
2022/04/17 00:21:26;;;;;;;;;;;;;;;;;;5126435;27;1404;-74
2022/04/17 00:23:52;;;;;;;;;;;;;;;;;;5108301;27;1239;-74
2022/04/17 00:26:17;;;;;;;;;;;;;;;;;;5122661;27;1156;-74
2022/04/17 00:28:42;;;;;;;;;;;;;;;;;;5120781;27;1974;-74
2022/04/17 00:31:08;;;;;;;;;;;;;;;;;;5123544;27;1234;-74
2022/04/17 00:33:33;;;;;;;;;;;;;;;;;;5106939;27;1428;-74
2022/04/17 00:35:59;;;;;;;;;;;;;;;;;;5105500;28;1300;-75
2022/04/17 00:38:24;;;;;;;;;;;;;;;;;;5119208;27;1131;-73
2022/04/17 00:40:49;;;;;;;;;;;;;;;;;;5123269;27;1150;-73
2022/04/17 00:43:22;;;;;;;;;;;;;;;;;;5118284;27;1108;-73
2022/04/17 00:45:47;;;;;;;;;;;;;;;;;;5118355;27;1335;-73
2022/04/17 00:48:12;;;;;;;;;;;;;;;;;;5104310;28;1976;-73
2022/04/17 00:50:37;;;;;;;;;;;;;;;;;;5106201;28;1222;-74
2022/04/17 00:53:03;;;;;;;;;;;;;;;;;;5103244;27;1270;-73
2022/04/17 00:55:31;;;;;;;;;;;;;;;;;;5087654;28;1274;-73
2022/04/17 00:57:57;;;;;;;;;;;;;;;;;;5098361;28;1306;-74
2022/04/17 01:00:22;;;;;;;;;;;;;;;;;;5102321;28;1195;-74
2022/04/17 01:02:48;;;;;;;;;;;;;;;;;;5111076;27;1321;-74
2022/04/17 01:05:13;;;;;;;;;;;;;;;;;;5109406;27;1273;-75
2022/04/17 01:07:38;;;;;;;;;;;;;;;;;;5085984;28;1712;-74
2022/04/17 01:10:05;;;;;;;;;;;;;;;;;;5105587;28;1984;-75
2022/04/17 01:12:35;;;;;;;;;;;;;;;;;;5099672;28;1155;-73
2022/04/17 01:15:02;;;;;;;;;;;;;;;;;;5108811;28;1119;-73
2022/04/17 01:17:27;;;;;;;;;;;;;;;;;;5084195;28;1290;-74
2022/04/17 01:19:53;;;;;;;;;;;;;;;;;;5123072;27;1179;-73
2022/04/17 01:22:18;;;;;;;;;;;;;;;;;;5106272;28;1335;-73
2022/04/17 01:27:30;;;;;;;;;;;;;;;;;;5120500;28;1039;-74
2022/04/17 01:29:56;;;;;;;;;;;;;;;;;;5124468;28;1901;-74
2022/04/17 01:32:21;;;;;;;;;;;;;;;;;;5122066;28;1593;-74
2022/04/17 01:34:47;;;;;;;;;;;;;;;;;;5125199;28;1218;-75
2022/04/17 01:37:14;;;;;;;;;;;;;;;;;;5124915;28;1152;-74
2022/04/17 01:39:39;;;;;;;;;;;;;;;;;;5125134;28;1258;-74
2022/04/17 01:42:06;;;;;;;;;;;;;;;;;;5122472;27;1131;-73
2022/04/17 01:44:34;;;;;;;;;;;;;;;;;;5104449;28;1167;-73
2022/04/17 01:47:02;;;;;;;;;;;;;;;;;;5102008;28;1148;-74
2022/04/17 01:49:27;;;;;;;;;;;;;;;;;;5122632;28;1902;-75
2022/04/17 01:51:53;;;;;;;;;;;;;;;;;;5125613;27;1210;-73
2022/04/17 01:54:19;;;;;;;;;;;;;;;;;;5105575;28;1211;-74
2022/04/17 01:56:48;;;;;;;;;;;;;;;;;;5102049;28;1183;-74
2022/04/17 01:59:14;;;;;;;;;;;;;;;;;;5113196;28;1135;-74
2022/04/17 02:01:40;;;;;;;;;;;;;;;;;;5119906;27;1203;-74
2022/04/17 02:04:05;;;;;;;;;;;;;;;;;;5107467;28;1317;-74
2022/04/17 02:06:31;;;;;;;;;;;;;;;;;;5125386;27;1206;-73
2022/04/17 02:08:56;;;;;;;;;;;;;;;;;;5105498;28;1969;-74
2022/04/17 02:11:23;;;;;;;;;;;;;;;;;;5119656;27;1530;-74
2022/04/17 02:13:49;;;;;;;;;;;;;;;;;;5108113;27;1265;-73
2022/04/17 02:16:17;;;;;;;;;;;;;;;;;;5109517;27;1194;-75
2022/04/17 02:18:43;;;;;;;;;;;;;;;;;;5125536;27;1302;-74
2022/04/17 02:21:08;;;;;;;;;;;;;;;;;;5127071;27;1313;-74
2022/04/17 02:23:34;;;;;;;;;;;;;;;;;;5127574;27;1263;-74
2022/04/17 02:26:05;;;;;;;;;;;;;;;;;;5120984;27;1281;-74
2022/04/17 02:28:34;;;;;;;;;;;;;;;;;;5088444;28;1936;-74
2022/04/17 02:31:04;;;;;;;;;;;;;;;;;;5103113;28;1238;-74
2022/04/17 02:33:29;;;;;;;;;;;;;;;;;;5107513;28;1166;-73
2022/04/17 02:35:54;;;;;;;;;;;;;;;;;;5106992;28;1108;-73
2022/04/17 02:38:19;;;;;;;;;;;;;;;;;;5107429;28;1144;-75
2022/04/17 02:40:45;;;;;;;;;;;;;;;;;;5106747;27;1196;-74
2022/04/17 02:43:10;;;;;;;;;;;;;;;;;;5103308;28;1170;-75
2022/04/17 02:45:36;;;;;;;;;;;;;;;;;;5103537;27;1104;-74
2022/04/17 02:48:01;;;;;;;;;;;;;;;;;;5108243;27;1967;-74
2022/04/17 02:50:27;;;;;;;;;;;;;;;;;;5129069;27;1135;-74
2022/04/17 02:52:55;;;;;;;;;;;;;;;;;;5124861;27;1195;-74
2022/04/17 02:55:21;;;;;;;;;;;;;;;;;;5127720;27;1700;-75
2022/04/17 02:57:46;;;;;;;;;;;;;;;;;;5118123;27;1207;-73
2022/04/17 03:00:12;;;;;;;;;;;;;;;;;;5122456;27;1296;-74
2022/04/17 03:05:36;;;;;;;;;;;;;;;;;;5121844;27;941;-74
2022/04/17 03:08:02;;;;;;;;;;;;;;;;;;5123815;27;1889;-74
2022/04/17 03:10:27;;;;;;;;;;;;;;;;;;5127941;27;1294;-74
2022/04/17 03:12:52;;;;;;;;;;;;;;;;;;5093908;28;1209;-76
2022/04/17 03:15:20;;;;;;;;;;;;;;;;;;5104254;27;1152;-76
2022/04/17 03:17:46;;;;;;;;;;;;;;;;;;5125606;27;1156;-75
2022/04/17 03:20:11;;;;;;;;;;;;;;;;;;5109798;27;1310;-74
2022/04/17 03:22:43;;;;;;;;;;;;;;;;;;5097638;28;1363;-74
2022/04/17 03:25:13;;;;;;;;;;;;;;;;;;5115779;27;1135;-74
2022/04/17 03:27:43;;;;;;;;;;;;;;;;;;5119191;27;1201;-74
2022/04/17 03:30:09;;;;;;;;;;;;;;;;;;5107953;28;1890;-74
2022/04/17 03:32:35;;;;;;;;;;;;;;;;;;5121946;27;1301;-74
2022/04/17 03:35:00;;;;;;;;;;;;;;;;;;5120129;27;1266;-75
2022/04/17 03:37:25;;;;;;;;;;;;;;;;;;5107160;27;1324;-74
2022/04/17 03:39:51;;;;;;;;;;;;;;;;;;5105502;28;1231;-74
2022/04/17 03:42:17;;;;;;;;;;;;;;;;;;5102140;28;1225;-74
2022/04/17 03:44:46;;;;;;;;;;;;;;;;;;5088400;28;1199;-74
2022/04/17 03:47:11;;;;;;;;;;;;;;;;;;5103266;28;1206;-74
2022/04/17 03:49:37;;;;;;;;;;;;;;;;;;5111117;27;1913;-73
2022/04/17 03:52:03;;;;;;;;;;;;;;;;;;5108349;27;1346;-74
2022/04/17 03:54:28;;;;;;;;;;;;;;;;;;5108800;27;1544;-74
2022/04/17 03:56:53;;;;;;;;;;;;;;;;;;5084703;28;1225;-75
2022/04/17 03:59:19;;;;;;;;;;;;;;;;;;5104515;28;1349;-73
2022/04/17 04:01:48;;;;;;;;;;;;;;;;;;5101419;28;1459;-74
2022/04/17 04:04:14;;;;;;;;;;;;;;;;;;5106949;28;1076;-73
2022/04/17 04:06:40;;;;;;;;;;;;;;;;;;5106736;28;1027;-74
2022/04/17 04:09:05;;;;;;;;;;;;;;;;;;5106271;28;1960;-74
2022/04/17 04:11:30;;;;;;;;;;;;;;;;;;5085961;28;1299;-75
2022/04/17 04:13:56;;;;;;;;;;;;;;;;;;5103464;28;1060;-74
2022/04/17 04:16:22;;;;;;;;;;;;;;;;;;5103113;28;1194;-73
2022/04/17 04:18:47;;;;;;;;;;;;;;;;;;5104758;28;1366;-75
2022/04/17 04:21:12;;;;;;;;;;;;;;;;;;5088799;28;1323;-73
2022/04/17 04:23:38;;;;;;;;;;;;;;;;;;5105337;28;1152;-74
2022/04/17 04:26:10;;;;;;;;;;;;;;;;;;5103051;28;1178;-74
2022/04/17 04:28:38;;;;;;;;;;;;;;;;;;5112796;27;1885;-72
2022/04/17 04:31:07;;;;;;;;;;;;;;;;;;5084624;28;1215;-74
2022/04/17 04:33:36;;;;;;;;;;;;;;;;;;5122377;27;1231;-74
2022/04/17 04:36:04;;;;;;;;;;;;;;;;;;5122326;27;1401;-73
2022/04/17 04:38:30;;;;;;;;;;;;;;;;;;5126708;27;1151;-74
2022/04/17 04:40:55;;;;;;;;;;;;;;;;;;5124265;27;1194;-73
2022/04/17 04:43:21;;;;;;;;;;;;;;;;;;5119623;27;1124;-74
2022/04/17 04:46:07;;;;;;;;;;;;;;;;;;5103105;27;1164;-75
2022/04/17 04:51:26;;;;;;;;;;;;;;;;;;5111275;27;1031;-75
2022/04/17 04:53:52;;;;;;;;;;;;;;;;;;5106104;28;1253;-74
2022/04/17 04:56:18;;;;;;;;;;;;;;;;;;5102641;28;1237;-73
2022/04/17 04:58:44;;;;;;;;;;;;;;;;;;5103761;28;1210;-74
2022/04/17 05:01:09;;;;;;;;;;;;;;;;;;5101638;28;1410;-74
2022/04/17 05:03:35;;;;;;;;;;;;;;;;;;5107415;28;1183;-73
2022/04/17 05:06:01;;;;;;;;;;;;;;;;;;5119374;27;1026;-76
2022/04/17 05:08:26;;;;;;;;;;;;;;;;;;5127248;27;1885;-75
2022/04/17 05:10:54;;;;;;;;;;;;;;;;;;5092350;28;1311;-74
2022/04/17 05:13:19;;;;;;;;;;;;;;;;;;5087373;28;1297;-76
2022/04/17 05:15:44;;;;;;;;;;;;;;;;;;5103369;28;1156;-75
2022/04/17 05:18:10;;;;;;;;;;;;;;;;;;5087108;28;1097;-74
2022/04/17 05:20:35;;;;;;;;;;;;;;;;;;5107502;28;1085;-73
2022/04/17 05:23:15;;;;;;;;;;;;;;;;;;5103045;28;1182;-73
2022/04/17 05:25:40;;;;;;;;;;;;;;;;;;5123424;28;1480;-74
2022/04/17 05:28:05;;;;;;;;;;;;;;;;;;5113147;27;1889;-74
2022/04/17 05:30:31;;;;;;;;;;;;;;;;;;5086194;28;1143;-74
2022/04/17 05:32:56;;;;;;;;;;;;;;;;;;5086898;28;1265;-73
2022/04/17 05:35:21;;;;;;;;;;;;;;;;;;5088078;28;1355;-74
2022/04/17 05:37:46;;;;;;;;;;;;;;;;;;5103718;28;1229;-74
2022/04/17 05:40:12;;;;;;;;;;;;;;;;;;5104590;28;1187;-74
2022/04/17 05:42:37;;;;;;;;;;;;;;;;;;5100147;28;1159;-73
2022/04/17 05:45:02;;;;;;;;;;;;;;;;;;5122572;28;1146;-74
2022/04/17 05:47:29;;;;;;;;;;;;;;;;;;5124379;27;1258;-74
2022/04/17 05:49:55;;;;;;;;;;;;;;;;;;5112886;27;1976;-74
2022/04/17 05:52:23;;;;;;;;;;;;;;;;;;5128056;27;1132;-74
2022/04/17 05:54:48;;;;;;;;;;;;;;;;;;5130189;27;1315;-75
2022/04/17 05:57:14;;;;;;;;;;;;;;;;;;5122128;27;1191;-73
2022/04/17 05:59:39;;;;;;;;;;;;;;;;;;5121627;27;1265;-72
2022/04/17 06:02:04;;;;;;;;;;;;;;;;;;5104097;28;1186;-74
2022/04/17 06:04:29;;;;;;;;;;;;;;;;;;5110144;28;1226;-74
2022/04/17 06:06:55;;;;;;;;;;;;;;;;;;5105815;28;1227;-74
2022/04/17 06:09:20;;;;;;;;;;;;;;;;;;5108852;28;1897;-74
2022/04/17 06:11:46;;;;;;;;;;;;;;;;;;5096570;27;1207;-73
2022/04/17 06:14:11;;;;;;;;;;;;;;;;;;5125414;27;1206;-75
2022/04/17 06:16:36;;;;;;;;;;;;;;;;;;5108139;27;1181;-75
2022/04/17 06:19:02;;;;;;;;;;;;;;;;;;5128795;27;1071;-75
2022/04/17 06:21:28;;;;;;;;;;;;;;;;;;5128595;27;1174;-75
2022/04/17 06:24:03;;;;;;;;;;;;;;;;;;5111137;27;1249;-75
2022/04/17 06:26:28;;;;;;;;;;;;;;;;;;5125240;27;1244;-74
2022/04/17 06:28:56;;;;;;;;;;;;;;;;;;5127693;27;1898;-75
2022/04/17 06:31:22;;;;;;;;;;;;;;;;;;5124324;27;1233;-75
2022/04/17 06:33:47;;;;;;;;;;;;;;;;;;5107002;28;1381;-73
2022/04/17 06:36:12;;;;;;;;;;;;;;;;;;5099324;27;1409;-74
2022/04/17 06:38:37;;;;;;;;;;;;;;;;;;5107994;27;1190;-74
2022/04/17 06:41:09;;;;;;;;;;;;;;;;;;5104531;27;1187;-73
2022/04/17 06:43:36;;;;;;;;;;;;;;;;;;5104465;27;1438;-73
2022/04/17 06:46:01;;;;;;;;;;;;;;;;;;5097040;27;1209;-75
2022/04/17 06:48:26;;;;;;;;;;;;;;;;;;5125008;27;1985;-73
2022/04/17 06:50:52;;;;;;;;;;;;;;;;;;5127778;27;1147;-73
2022/04/17 06:53:18;;;;;;;;;;;;;;;;;;5107346;27;1214;-73
2022/04/17 06:55:43;;;;;;;;;;;;;;;;;;5127152;27;1203;-74
2022/04/17 06:58:09;;;;;;;;;;;;;;;;;;5110905;27;1024;-73
2022/04/17 07:00:35;;;;;;;;;;;;;;;;;;5115275;27;1167;-74
2022/04/17 07:03:04;;;;;;;;;;;;;;;;;;5111406;27;1456;-73
2022/04/17 07:05:29;;;;;;;;;;;;;;;;;;5105151;28;1267;-74
2022/04/17 07:08:04;;;;;;;;;;;;;;;;;;5107612;28;1187;-74
2022/04/17 07:10:30;;;;;;;;;;;;;;;;;;5104260;27;1949;-74
2022/04/17 07:12:56;;;;;;;;;;;;;;;;;;5122302;27;1275;-73
2022/04/17 07:15:24;;;;;;;;;;;;;;;;;;5122061;27;1390;-74
2022/04/17 07:17:49;;;;;;;;;;;;;;;;;;5125046;27;1197;-74
2022/04/17 07:20:15;;;;;;;;;;;;;;;;;;5107879;28;1088;-72
2022/04/17 07:22:41;;;;;;;;;;;;;;;;;;5110934;27;1444;-74
2022/04/17 07:25:07;;;;;;;;;;;;;;;;;;5108658;27;1179;-73
2022/04/17 07:27:38;;;;;;;;;;;;;;;;;;5120985;27;1217;-73
2022/04/17 07:30:07;;;;;;;;;;;;;;;;;;5126105;27;1973;-74
2022/04/17 07:32:34;;;;;;;;;;;;;;;;;;5122878;27;1218;-73
2022/04/17 07:35:03;;;;;;;;;;;;;;;;;;5114696;27;1289;-73
2022/04/17 07:37:31;;;;;;;;;;;;;;;;;;5086114;28;1212;-73
2022/04/17 07:39:56;;;;;;;;;;;;;;;;;;5106773;28;1347;-73
2022/04/17 07:42:21;;;;;;;;;;;;;;;;;;5092463;27;1194;-73
2022/04/17 07:44:48;;;;;;;;;;;;;;;;;;5108011;27;1300;-73
2022/04/17 07:47:13;;;;;;;;;;;;;;;;;;5102382;27;1195;-73
2022/04/17 07:49:38;;;;;;;;;;;;;;;;;;5106663;28;1902;-76
2022/04/17 07:52:04;;;;;;;;;;;;;;;;;;5102996;28;1168;-78
2022/04/17 07:54:29;;;;;;;;;;;;;;;;;;5123779;27;1261;-75
2022/04/17 07:56:56;;;;;;;;;;;;;;;;;;5106619;27;1205;-75
2022/04/17 07:59:22;;;;;;;;;;;;;;;;;;5119337;27;1201;-75
2022/04/17 08:01:47;;;;;;;;;;;;;;;;;;5105711;27;1410;-75
2022/04/17 08:04:13;;;;;;;;;;;;;;;;;;5112616;27;1161;-73
2022/04/17 08:06:38;;;;;;;;;;;;;;;;;;5106779;27;1405;-74
2022/04/17 08:09:07;;;;;;;;;;;;;;;;;;5103111;28;1886;-75
2022/04/17 08:11:32;;;;;;;;;;;;;;;;;;5102221;27;1164;-73
2022/04/17 08:13:57;;;;;;;;;;;;;;;;;;5105390;27;1171;-74
2022/04/17 08:16:23;;;;;;;;;;;;;;;;;;5100131;28;1044;-75
2022/04/17 08:18:48;;;;;;;;;;;;;;;;;;5086661;28;1286;-75
2022/04/17 08:21:14;;;;;;;;;;;;;;;;;;5112439;27;1226;-75
2022/04/17 08:23:39;;;;;;;;;;;;;;;;;;5103044;28;1376;-75
2022/04/17 08:26:10;;;;;;;;;;;;;;;;;;5104353;27;1481;-74
2022/04/17 08:28:36;;;;;;;;;;;;;;;;;;5106472;27;1891;-75
2022/04/17 08:31:10;;;;;;;;;;;;;;;;;;5102938;27;1273;-75
2022/04/17 08:33:35;;;;;;;;;;;;;;;;;;5121808;27;1237;-74
2022/04/17 08:36:01;;;;;;;;;;;;;;;;;;5124913;27;1318;-74
2022/04/17 08:38:26;;;;;;;;;;;;;;;;;;5091382;28;1465;-73
2022/04/17 08:40:52;;;;;;;;;;;;;;;;;;5103749;28;1275;-74
2022/04/17 08:43:18;;;;;;;;;;;;;;;;;;5104634;27;1178;-73
2022/04/17 08:45:43;;;;;;;;;;;;;;;;;;5100244;28;1187;-75
2022/04/17 08:48:09;;;;;;;;;;;;;;;;;;5101071;28;1036;-75
2022/04/17 08:50:35;;;;;;;;;;;;;;;;;;5103783;28;1207;-75
2022/04/17 08:53:01;;;;;;;;;;;;;;;;;;5106869;27;1458;-75
2022/04/17 08:55:26;;;;;;;;;;;;;;;;;;5111210;27;1214;-75
2022/04/17 08:57:52;;;;;;;;;;;;;;;;;;5090865;27;1293;-75
2022/04/17 09:00:21;;;;;;;;;;;;;;;;;;5119436;27;1288;-76
2022/04/17 09:02:46;;;;;;;;;;;;;;;;;;5117232;27;1192;-76
2022/04/17 09:05:15;;;;;;;;;;;;;;;;;;5113900;27;1155;-77
2022/04/17 09:07:40;;;;;;;;;;;;;;;;;;5123328;27;1369;-74
2022/04/17 09:10:07;;;;;;;;;;;;;;;;;;5124229;27;1960;-76
2022/04/17 09:12:33;;;;;;;;;;;;;;;;;;5118507;27;1278;-75
2022/04/17 09:14:58;;;;;;;;;;;;;;;;;;5107160;28;1395;-76
2022/04/17 09:17:30;;;;;;;;;;;;;;;;;;5120185;27;1340;-76
2022/04/17 09:19:56;;;;;;;;;;;;;;;;;;5124866;28;1210;-76
2022/04/17 09:22:21;;;;;;;;;;;;;;;;;;5107097;27;1173;-76
2022/04/17 09:24:46;;;;;;;;;;;;;;;;;;5109989;28;1210;-76
2022/04/17 09:27:12;;;;;;;;;;;;;;;;;;5101703;28;1322;-77
2022/04/17 09:29:38;;;;;;;;;;;;;;;;;;5112325;27;1913;-76
2022/04/17 09:32:04;;;;;;;;;;;;;;;;;;5124742;27;1151;-77
2022/04/17 09:34:41;;;;;;;;;;;;;;;;;;5128753;27;1598;-76
2022/04/17 09:37:17;;;;;;;;;;;;;;;;;;5128917;27;1229;-76
2022/04/17 09:39:43;;;;;;;;;;;;;;;;;;5130169;27;1123;-76
2022/04/17 09:42:19;;;;;;;;;;;;;;;;;;5124714;27;1178;-76
2022/04/17 09:44:49;;;;;;;;;;;;;;;;;;5129080;27;1130;-76
2022/04/17 09:47:17;;;;;;;;;;;;;;;;;;5103513;27;1171;-75
2022/04/17 09:49:52;;;;;;;;;;;;;;;;;;5129468;27;1917;-76
2022/04/17 09:52:18;;;;;;;;;;;;;;;;;;5125056;27;1330;-75
2022/04/17 09:54:44;;;;;;;;;;;;;;;;;;5129755;27;1197;-77
2022/04/17 09:57:14;;;;;;;;;;;;;;;;;;5102934;27;1252;-76
2022/04/17 09:59:40;;;;;;;;;;;;;;;;;;5109576;28;1238;-76
2022/04/17 10:02:05;;;;;;;;;;;;;;;;;;5118477;27;1179;-82
2022/04/17 10:04:30;;;;;;;;;;;;;;;;;;5106956;27;1189;-83
2022/04/17 10:06:58;;;;;;;;;;;;;;;;;;5113909;27;1183;-85
2022/04/17 10:09:24;;;;;;;;;;;;;;;;;;5116569;27;1897;-87
2022/04/17 10:11:51;;;;;;;;;;;;;;;;;;5109399;27;1120;-85
2022/04/17 10:14:16;;;;;;;;;;;;;;;;;;5111591;27;1419;-86
2022/04/17 10:16:42;;;;;;;;;;;;;;;;;;5117692;27;1170;-88
2022/04/17 10:19:19;;;;;;;;;;;;;;;;;;5104953;28;1193;-87
2022/04/17 10:21:45;;;;;;;;;;;;;;;;;;5124336;27;1305;-88
2022/04/17 10:24:17;;;;;;;;;;;;;;;;;;5115635;27;1230;-86
2022/04/17 10:26:47;;;;;;;;;;;;;;;;;;5114414;27;1440;-86
2022/04/17 10:29:28;;;;;;;;;;;;;;;;;;5117307;27;1988;-87
2022/04/17 10:32:18;;;;;;;;;;;;;;;;;;5118608;27;1287;-87
2022/04/17 10:34:50;;;;;;;;;;;;;;;;;;5119341;27;1213;-87
2022/04/17 10:37:25;;;;;;;;;;;;;;;;;;5115481;27;1327;-86
2022/04/17 10:39:52;;;;;;;;;;;;;;;;;;5118634;27;1095;-87
2022/04/17 10:42:22;;;;;;;;;;;;;;;;;;5106109;27;1182;-87
2022/04/17 10:45:04;;;;;;;;;;;;;;;;;;5106530;27;1224;-87
2022/04/17 10:47:30;;;;;;;;;;;;;;;;;;5123186;27;1205;-83
2022/04/17 10:50:00;;;;;;;;;;;;;;;;;;5096277;28;1999;-85
2022/04/17 10:52:31;;;;;;;;;;;;;;;;;;5113361;27;1043;-84
2022/04/17 10:55:12;;;;;;;;;;;;;;;;;;5110156;27;1381;-83
2022/04/17 10:57:50;;;;;;;;;;;;;;;;;;5118513;27;1387;-84
2022/04/17 11:00:27;;;;;;;;;;;;;;;;;;5121116;27;1187;-82
2022/04/17 11:02:52;;;;;;;;;;;;;;;;;;5105111;27;1284;-85
2022/04/17 11:08:24;;;;;;;;;;;;;;;;;;5109476;27;1913;-85
2022/04/17 11:10:52;;;;;;;;;;;;;;;;;;5115908;27;1232;-83
2022/04/17 11:13:27;;;;;;;;;;;;;;;;;;5115823;27;1239;-84
2022/04/17 11:15:54;;;;;;;;;;;;;;;;;;5104511;27;1272;-84
2022/04/17 11:18:23;;;;;;;;;;;;;;;;;;5116406;27;1281;-86
2022/04/17 11:20:53;;;;;;;;;;;;;;;;;;5118978;27;1381;-84
2022/04/17 11:23:37;;;;;;;;;;;;;;;;;;5120261;27;1147;-83
2022/04/17 11:26:11;;;;;;;;;;;;;;;;;;5120670;27;1144;-83
2022/04/17 11:28:36;;;;;;;;;;;;;;;;;;5109625;27;1926;-85
2022/04/17 11:31:05;;;;;;;;;;;;;;;;;;5105281;28;1194;-89
2022/04/17 11:33:30;;;;;;;;;;;;;;;;;;5101463;27;1341;-84
2022/04/17 11:35:56;;;;;;;;;;;;;;;;;;5116730;27;1243;-88
2022/04/17 11:38:25;;;;;;;;;;;;;;;;;;5121984;27;1118;-88
2022/04/17 11:40:53;;;;;;;;;;;;;;;;;;5114811;27;1418;-86
2022/04/17 11:43:27;;;;;;;;;;;;;;;;;;5111441;27;1233;-85
2022/04/17 11:46:04;;;;;;;;;;;;;;;;;;5107225;27;1209;-87
2022/04/17 11:48:31;;;;;;;;;;;;;;;;;;5112058;27;1906;-87
2022/04/17 11:50:56;;;;;;;;;;;;;;;;;;5123372;27;1143;-88
2022/04/17 11:53:31;;;;;;;;;;;;;;;;;;5124680;27;1091;-85
2022/04/17 11:55:56;;;;;;;;;;;;;;;;;;5126763;27;1285;-88
2022/04/17 11:58:28;;;;;;;;;;;;;;;;;;5094274;27;1192;-87
2022/04/17 12:00:58;;;;;;;;;;;;;;;;;;5118073;27;1293;-84
2022/04/17 12:03:36;;;;;;;;;;;;;;;;;;5116146;27;1120;-82
2022/04/17 12:06:04;;;;;;;;;;;;;;;;;;5120553;27;1341;-83
2022/04/17 12:08:33;;;;;;;;;;;;;;;;;;5101437;28;1878;-82
2022/04/17 12:11:11;;;;;;;;;;;;;;;;;;5111314;27;1104;-82
2022/04/17 12:13:36;;;;;;;;;;;;;;;;;;5109602;27;1245;-87
2022/04/17 12:16:03;;;;;;;;;;;;;;;;;;5107125;27;1175;-85
2022/04/17 12:18:29;;;;;;;;;;;;;;;;;;5106463;27;1222;-85
2022/04/17 12:21:02;;;;;;;;;;;;;;;;;;5106527;28;1314;-83
2022/04/17 12:23:29;;;;;;;;;;;;;;;;;;5105203;28;1099;-85
2022/04/17 12:25:55;;;;;;;;;;;;;;;;;;5117462;27;1425;-84
2022/04/17 12:28:27;;;;;;;;;;;;;;;;;;5121194;27;1931;-86
2022/04/17 12:30:52;;;;;;;;;;;;;;;;;;5088664;28;1309;-86
2022/04/17 12:33:30;;;;;;;;;;;;;;;;;;5107565;27;1184;-83
2022/04/17 12:36:15;;;;;;;;;;;;;;;;;;5098251;28;1258;-83
2022/04/17 12:38:52;;;;;;;;;;;;;;;;;;5110159;27;1209;-83
2022/04/17 12:41:30;;;;;;;;;;;;;;;;;;5120265;27;1245;-84
2022/04/17 12:43:55;;;;;;;;;;;;;;;;;;5116619;27;1153;-85
2022/04/17 12:46:31;;;;;;;;;;;;;;;;;;5109813;27;1343;-81
2022/04/17 12:49:06;;;;;;;;;;;;;;;;;;5128267;27;1989;-78
2022/04/17 12:51:32;;;;;;;;;;;;;;;;;;5103649;28;1324;-82
2022/04/17 12:53:57;;;;;;;;;;;;;;;;;;5112269;27;1169;-81
2022/04/17 12:56:30;;;;;;;;;;;;;;;;;;5109720;27;1101;-81
2022/04/17 12:58:59;;;;;;;;;;;;;;;;;;5114629;27;1274;-81
2022/04/17 13:01:32;;;;;;;;;;;;;;;;;;5096966;27;1293;-81
2022/04/17 13:04:11;;;;;;;;;;;;;;;;;;5105009;28;1319;-82
2022/04/17 13:06:37;;;;;;;;;;;;;;;;;;5106455;27;1432;-82
2022/04/17 13:09:13;;;;;;;;;;;;;;;;;;5110534;27;1870;-81
2022/04/17 13:11:53;;;;;;;;;;;;;;;;;;5109699;27;1260;-82
2022/04/17 13:14:19;;;;;;;;;;;;;;;;;;5109819;27;1393;-81
2022/04/17 13:16:52;;;;;;;;;;;;;;;;;;5107107;28;1195;-80
2022/04/17 13:19:18;;;;;;;;;;;;;;;;;;5114579;28;1255;-80
2022/04/17 13:21:44;;;;;;;;;;;;;;;;;;5112332;28;1582;-82
2022/04/17 13:24:15;;;;;;;;;;;;;;;;;;5123499;28;1041;-79
2022/04/17 13:26:41;;;;;;;;;;;;;;;;;;5105844;28;1131;-81
2022/04/17 13:29:06;;;;;;;;;;;;;;;;;;5097457;28;1957;-83
2022/04/17 13:31:31;;;;;;;;;;;;;;;;;;5090452;28;1290;-78
2022/04/17 13:33:56;;;;;;;;;;;;;;;;;;5091665;28;1195;-80
2022/04/17 13:36:22;;;;;;;;;;;;;;;;;;5105169;28;1252;-81
2022/04/17 13:38:47;;;;;;;;;;;;;;;;;;5101639;28;1052;-74
2022/04/17 13:41:12;;;;;;;;;;;;;;;;;;5100162;28;1329;-74
2022/04/17 13:43:38;;;;;;;;;;;;;;;;;;5098647;28;1140;-74
2022/04/17 13:46:03;;;;;;;;;;;;;;;;;;5102294;28;1135;-74
2022/04/17 13:48:31;;;;;;;;;;;;;;;;;;5102441;28;1961;-74
2022/04/17 13:50:57;;;;;;;;;;;;;;;;;;5124322;28;1909;-73
2022/04/17 13:53:22;;;;;;;;;;;;;;;;;;5106755;28;1342;-74
2022/04/17 13:55:47;;;;;;;;;;;;;;;;;;5123799;28;1344;-74
2022/04/17 13:58:13;;;;;;;;;;;;;;;;;;5116743;28;1311;-74
2022/04/17 14:00:38;;;;;;;;;;;;;;;;;;5120162;27;1135;-73
2022/04/17 14:03:03;;;;;;;;;;;;;;;;;;5124862;27;1178;-74
2022/04/17 14:05:29;;;;;;;;;;;;;;;;;;5121270;28;1319;-73
2022/04/17 14:07:56;;;;;;;;;;;;;;;;;;5123833;27;1215;-73
2022/04/17 14:10:22;;;;;;;;;;;;;;;;;;5129247;27;1890;-74
2022/04/17 14:12:47;;;;;;;;;;;;;;;;;;5120441;27;1075;-74
2022/04/17 14:15:23;;;;;;;;;;;;;;;;;;5125800;27;1187;-74
2022/04/17 14:17:48;;;;;;;;;;;;;;;;;;5124477;27;1389;-74
2022/04/17 14:20:14;;;;;;;;;;;;;;;;;;5126430;27;1183;-73
2022/04/17 14:22:39;;;;;;;;;;;;;;;;;;5124411;27;1118;-78
2022/04/17 14:25:04;;;;;;;;;;;;;;;;;;5102031;28;1365;-77
2022/04/17 14:27:33;;;;;;;;;;;;;;;;;;5083962;28;1229;-78
2022/04/17 14:29:58;;;;;;;;;;;;;;;;;;5107851;28;1952;-78
2022/04/17 14:32:24;;;;;;;;;;;;;;;;;;5087139;28;1290;-76
2022/04/17 14:34:49;;;;;;;;;;;;;;;;;;5120677;27;1242;-77
2022/04/17 14:37:14;;;;;;;;;;;;;;;;;;5115709;27;1345;-77
2022/04/17 14:39:39;;;;;;;;;;;;;;;;;;5116287;27;1211;-77
2022/04/17 14:42:11;;;;;;;;;;;;;;;;;;5090982;27;1354;-77
2022/04/17 14:44:38;;;;;;;;;;;;;;;;;;5123713;27;1108;-78
2022/04/17 14:47:03;;;;;;;;;;;;;;;;;;5125869;27;1229;-79
2022/04/17 14:49:29;;;;;;;;;;;;;;;;;;5130069;27;1996;-78
2022/04/17 14:51:54;;;;;;;;;;;;;;;;;;5100526;28;1148;-78
2022/04/17 14:54:20;;;;;;;;;;;;;;;;;;5108477;28;1166;-80
2022/04/17 14:56:45;;;;;;;;;;;;;;;;;;5107995;27;1170;-78
2022/04/17 14:59:11;;;;;;;;;;;;;;;;;;5125628;27;1239;-79
2022/04/17 15:01:36;;;;;;;;;;;;;;;;;;5125994;27;1168;-78
2022/04/17 15:04:02;;;;;;;;;;;;;;;;;;5130807;27;1190;-83
2022/04/17 15:06:27;;;;;;;;;;;;;;;;;;5109484;27;1225;-80
2022/04/17 15:08:52;;;;;;;;;;;;;;;;;;5093533;28;1894;-81
2022/04/17 15:11:18;;;;;;;;;;;;;;;;;;5090422;28;1263;-79
2022/04/17 15:13:43;;;;;;;;;;;;;;;;;;5109051;27;1207;-79
2022/04/17 15:16:08;;;;;;;;;;;;;;;;;;5105897;27;1218;-79
2022/04/17 15:18:41;;;;;;;;;;;;;;;;;;5111995;27;1210;-78
2022/04/17 15:21:07;;;;;;;;;;;;;;;;;;5108833;27;1189;-79
2022/04/17 15:23:33;;;;;;;;;;;;;;;;;;5128765;27;1171;-79
2022/04/17 15:25:58;;;;;;;;;;;;;;;;;;5109115;27;1343;-80
2022/04/17 15:28:23;;;;;;;;;;;;;;;;;;5107111;27;1400;-80
2022/04/17 15:30:49;;;;;;;;;;;;;;;;;;5117222;27;1885;-82
2022/04/17 15:33:14;;;;;;;;;;;;;;;;;;5102670;28;1202;-80
2022/04/17 15:35:40;;;;;;;;;;;;;;;;;;5104878;27;1188;-80
2022/04/17 15:38:05;;;;;;;;;;;;;;;;;;5104395;27;1384;-80
2022/04/17 15:40:33;;;;;;;;;;;;;;;;;;5112273;27;1120;-79
2022/04/17 15:47:54;;;;;;;;;;;;;;;;;;5115509;27;1290;-81
2022/04/17 15:48:28;;;;;;;;;;;;;;;;;;5119105;27;1093;-78
2022/04/17 15:50:53;;;;;;;;;;;;;;;;;;5112958;27;1211;-80
2022/04/17 15:53:18;;;;;;;;;;;;;;;;;;5098492;27;1355;-79
2022/04/17 15:55:44;;;;;;;;;;;;;;;;;;5110419;27;1072;-79
2022/04/17 15:58:09;;;;;;;;;;;;;;;;;;5094179;28;1199;-79
2022/04/17 16:00:34;;;;;;;;;;;;;;;;;;5104127;28;1164;-78
2022/04/17 16:02:59;;;;;;;;;;;;;;;;;;5103262;28;1283;-81
2022/04/17 16:05:25;;;;;;;;;;;;;;;;;;5106143;28;1190;-78
2022/04/17 16:07:50;;;;;;;;;;;;;;;;;;5105468;28;1382;-77
2022/04/17 16:10:16;;;;;;;;;;;;;;;;;;5092248;28;1901;-78
2022/04/17 16:12:41;;;;;;;;;;;;;;;;;;5083034;28;1369;-77
2022/04/17 16:15:07;;;;;;;;;;;;;;;;;;5107517;28;1343;-79
2022/04/17 16:17:33;;;;;;;;;;;;;;;;;;5109456;27;1209;-81
2022/04/17 16:19:58;;;;;;;;;;;;;;;;;;5123944;27;1194;-80
2022/04/17 16:22:25;;;;;;;;;;;;;;;;;;5132575;27;1413;-83
2022/04/17 16:24:51;;;;;;;;;;;;;;;;;;5132287;27;1170;-82
2022/04/17 16:27:16;;;;;;;;;;;;;;;;;;5124325;27;1203;-80
2022/04/17 16:29:44;;;;;;;;;;;;;;;;;;5122146;27;1939;-84
2022/04/17 16:32:10;;;;;;;;;;;;;;;;;;5123414;27;1258;-80
2022/04/17 16:34:35;;;;;;;;;;;;;;;;;;5107979;28;1284;-78
2022/04/17 16:37:04;;;;;;;;;;;;;;;;;;5117256;27;1408;-77
2022/04/17 16:39:29;;;;;;;;;;;;;;;;;;5127754;27;1083;-75
2022/04/17 16:41:57;;;;;;;;;;;;;;;;;;5102742;27;1177;-73
2022/04/17 16:44:22;;;;;;;;;;;;;;;;;;5102214;28;1168;-73
2022/04/17 16:46:48;;;;;;;;;;;;;;;;;;5099620;28;1207;-73
2022/04/17 16:49:16;;;;;;;;;;;;;;;;;;5104139;28;1975;-73
2022/04/17 16:51:42;;;;;;;;;;;;;;;;;;5122360;27;1301;-74
2022/04/17 16:54:09;;;;;;;;;;;;;;;;;;5123664;27;1174;-74
2022/04/17 16:56:34;;;;;;;;;;;;;;;;;;5104684;27;1348;-74
2022/04/17 16:59:11;;;;;;;;;;;;;;;;;;5116093;27;1218;-73
2022/04/17 17:01:37;;;;;;;;;;;;;;;;;;5103093;27;1339;-74
2022/04/17 17:04:02;;;;;;;;;;;;;;;;;;5104462;27;1327;-73
2022/04/17 17:06:30;;;;;;;;;;;;;;;;;;5096189;28;1287;-74
2022/04/17 17:08:55;;;;;;;;;;;;;;;;;;5100094;28;1959;-74
2022/04/17 17:11:21;;;;;;;;;;;;;;;;;;5084041;28;1439;-74
2022/04/17 17:13:53;;;;;;;;;;;;;;;;;;5096489;28;1332;-74
2022/04/17 17:16:18;;;;;;;;;;;;;;;;;;5117466;27;1119;-74
2022/04/17 17:18:49;;;;;;;;;;;;;;;;;;5119044;27;1283;-73